sensor_id;sensor_type;location;lat;lon;timestamp;temperature;humidity
35111;DHT22;21290;50.158;8.658;2023-07-20T00:00:26;20.10;92.00
35111;DHT22;21290;50.158;8.658;2023-07-20T00:02:52;20.10;91.50
35111;DHT22;21290;50.158;8.658;2023-07-20T00:05:19;20.10;91.30
35111;DHT22;21290;50.158;8.658;2023-07-20T00:07:47;20.00;91.90
35111;DHT22;21290;50.158;8.658;2023-07-20T00:10:18;19.90;91.50
35111;DHT22;21290;50.158;8.658;2023-07-20T00:12:45;19.90;92.30
35111;DHT22;21290;50.158;8.658;2023-07-20T00:15:14;19.80;92.40
35111;DHT22;21290;50.158;8.658;2023-07-20T00:17:40;19.80;92.00
35111;DHT22;21290;50.158;8.658;2023-07-20T00:20:08;19.70;92.10
35111;DHT22;21290;50.158;8.658;2023-07-20T00:22:34;19.70;92.50
35111;DHT22;21290;50.158;8.658;2023-07-20T00:25:02;19.60;93.10
35111;DHT22;21290;50.158;8.658;2023-07-20T00:27:28;19.60;92.80
35111;DHT22;21290;50.158;8.658;2023-07-20T00:29:55;19.50;93.00
35111;DHT22;21290;50.158;8.658;2023-07-20T00:32:22;19.50;93.20
35111;DHT22;21290;50.158;8.658;2023-07-20T00:34:48;19.50;93.50
35111;DHT22;21290;50.158;8.658;2023-07-20T00:37:15;19.40;93.70
35111;DHT22;21290;50.158;8.658;2023-07-20T00:39:42;19.40;93.90
35111;DHT22;21290;50.158;8.658;2023-07-20T00:42:08;19.30;94.10
35111;DHT22;21290;50.158;8.658;2023-07-20T00:44:35;19.30;94.40
35111;DHT22;21290;50.158;8.658;2023-07-20T00:47:01;19.30;94.70
35111;DHT22;21290;50.158;8.658;2023-07-20T00:49:28;19.30;94.70
35111;DHT22;21290;50.158;8.658;2023-07-20T00:51:55;19.30;94.90
35111;DHT22;21290;50.158;8.658;2023-07-20T00:57:35;19.30;95.90
35111;DHT22;21290;50.158;8.658;2023-07-20T01:00:02;19.30;96.00
35111;DHT22;21290;50.158;8.658;2023-07-20T01:02:29;19.20;96.30
35111;DHT22;21290;50.158;8.658;2023-07-20T01:04:56;19.10;96.50
35111;DHT22;21290;50.158;8.658;2023-07-20T01:07:26;19.00;96.90
35111;DHT22;21290;50.158;8.658;2023-07-20T01:10:19;18.90;97.50
35111;DHT22;21290;50.158;8.658;2023-07-20T01:12:48;18.70;98.20
35111;DHT22;21290;50.158;8.658;2023-07-20T01:15:17;18.80;99.30
35111;DHT22;21290;50.158;8.658;2023-07-20T01:17:44;18.70;99.60
35111;DHT22;21290;50.158;8.658;2023-07-20T01:20:16;18.70;99.90
35111;DHT22;21290;50.158;8.658;2023-07-20T01:23:10;18.80;99.90
35111;DHT22;21290;50.158;8.658;2023-07-20T01:28:47;18.60;99.90
35111;DHT22;21290;50.158;8.658;2023-07-20T01:31:21;18.40;99.90
35111;DHT22;21290;50.158;8.658;2023-07-20T01:33:52;18.50;99.90
35111;DHT22;21290;50.158;8.658;2023-07-20T01:36:22;18.60;99.90
35111;DHT22;21290;50.158;8.658;2023-07-20T01:38:51;18.70;99.90
35111;DHT22;21290;50.158;8.658;2023-07-20T01:41:18;18.70;99.90
35111;DHT22;21290;50.158;8.658;2023-07-20T01:43:46;18.60;99.90
35111;DHT22;21290;50.158;8.658;2023-07-20T01:46:12;18.60;99.90
35111;DHT22;21290;50.158;8.658;2023-07-20T01:48:39;18.40;99.90
35111;DHT22;21290;50.158;8.658;2023-07-20T01:51:06;18.40;99.90
35111;DHT22;21290;50.158;8.658;2023-07-20T01:53:32;18.20;99.90
35111;DHT22;21290;50.158;8.658;2023-07-20T01:55:59;18.10;99.90
35111;DHT22;21290;50.158;8.658;2023-07-20T01:58:26;18.10;99.90
35111;DHT22;21290;50.158;8.658;2023-07-20T02:00:53;18.00;99.90
35111;DHT22;21290;50.158;8.658;2023-07-20T02:03:19;17.90;99.90
35111;DHT22;21290;50.158;8.658;2023-07-20T02:05:48;17.90;99.90
35111;DHT22;21290;50.158;8.658;2023-07-20T02:08:15;17.80;99.90
35111;DHT22;21290;50.158;8.658;2023-07-20T02:10:45;17.80;99.90
35111;DHT22;21290;50.158;8.658;2023-07-20T02:13:12;17.90;99.90
35111;DHT22;21290;50.158;8.658;2023-07-20T02:15:39;17.90;99.90
35111;DHT22;21290;50.158;8.658;2023-07-20T02:18:06;17.90;99.90
35111;DHT22;21290;50.158;8.658;2023-07-20T02:20:34;17.90;99.90
35111;DHT22;21290;50.158;8.658;2023-07-20T02:23:04;17.90;99.90
35111;DHT22;21290;50.158;8.658;2023-07-20T02:25:31;17.90;99.90
35111;DHT22;21290;50.158;8.658;2023-07-20T02:27:57;17.90;99.90
35111;DHT22;21290;50.158;8.658;2023-07-20T02:30:25;18.00;99.90
35111;DHT22;21290;50.158;8.658;2023-07-20T02:32:51;18.00;99.90
35111;DHT22;21290;50.158;8.658;2023-07-20T02:35:18;17.90;99.90
35111;DHT22;21290;50.158;8.658;2023-07-20T02:37:45;17.90;99.90
35111;DHT22;21290;50.158;8.658;2023-07-20T02:40:12;17.90;99.90
35111;DHT22;21290;50.158;8.658;2023-07-20T02:42:38;17.90;99.90
35111;DHT22;21290;50.158;8.658;2023-07-20T02:45:06;17.80;99.90
35111;DHT22;21290;50.158;8.658;2023-07-20T02:47:33;17.80;99.90
35111;DHT22;21290;50.158;8.658;2023-07-20T02:50:00;17.70;99.90
35111;DHT22;21290;50.158;8.658;2023-07-20T02:52:26;17.60;99.90
35111;DHT22;21290;50.158;8.658;2023-07-20T02:54:53;17.60;99.90
35111;DHT22;21290;50.158;8.658;2023-07-20T02:57:20;17.70;99.90
35111;DHT22;21290;50.158;8.658;2023-07-20T02:59:46;17.60;99.90
35111;DHT22;21290;50.158;8.658;2023-07-20T03:02:13;17.70;99.90
35111;DHT22;21290;50.158;8.658;2023-07-20T03:04:40;17.60;99.90
35111;DHT22;21290;50.158;8.658;2023-07-20T03:07:06;17.60;99.90
35111;DHT22;21290;50.158;8.658;2023-07-20T03:09:34;17.70;99.90
35111;DHT22;21290;50.158;8.658;2023-07-20T03:12:00;17.70;99.90
35111;DHT22;21290;50.158;8.658;2023-07-20T03:14:27;17.70;99.90
35111;DHT22;21290;50.158;8.658;2023-07-20T03:16:54;17.80;99.90
35111;DHT22;21290;50.158;8.658;2023-07-20T03:19:21;17.80;99.90
35111;DHT22;21290;50.158;8.658;2023-07-20T03:21:48;17.90;99.90
35111;DHT22;21290;50.158;8.658;2023-07-20T03:24:15;17.90;99.90
35111;DHT22;21290;50.158;8.658;2023-07-20T03:26:41;18.00;99.90
35111;DHT22;21290;50.158;8.658;2023-07-20T03:29:08;18.20;99.90
35111;DHT22;21290;50.158;8.658;2023-07-20T03:31:34;18.10;99.90
35111;DHT22;21290;50.158;8.658;2023-07-20T03:34:01;18.10;99.90
35111;DHT22;21290;50.158;8.658;2023-07-20T03:36:28;18.10;99.90
35111;DHT22;21290;50.158;8.658;2023-07-20T03:38:55;18.00;99.90
35111;DHT22;21290;50.158;8.658;2023-07-20T03:41:21;18.00;99.90
35111;DHT22;21290;50.158;8.658;2023-07-20T03:43:48;18.00;99.90
35111;DHT22;21290;50.158;8.658;2023-07-20T03:46:15;18.00;99.90
35111;DHT22;21290;50.158;8.658;2023-07-20T03:48:42;17.80;99.90
35111;DHT22;21290;50.158;8.658;2023-07-20T03:51:08;17.80;99.90
35111;DHT22;21290;50.158;8.658;2023-07-20T03:53:35;17.90;99.90
35111;DHT22;21290;50.158;8.658;2023-07-20T03:56:02;17.90;99.90
35111;DHT22;21290;50.158;8.658;2023-07-20T03:58:28;18.00;99.90
35111;DHT22;21290;50.158;8.658;2023-07-20T04:00:57;17.90;99.90
35111;DHT22;21290;50.158;8.658;2023-07-20T04:03:24;17.80;99.90
35111;DHT22;21290;50.158;8.658;2023-07-20T04:05:54;17.80;99.90
35111;DHT22;21290;50.158;8.658;2023-07-20T04:08:23;17.80;99.90
35111;DHT22;21290;50.158;8.658;2023-07-20T04:10:51;17.90;99.90
35111;DHT22;21290;50.158;8.658;2023-07-20T04:13:18;18.00;99.90
35111;DHT22;21290;50.158;8.658;2023-07-20T04:15:45;18.10;99.90
35111;DHT22;21290;50.158;8.658;2023-07-20T04:18:11;18.20;99.90
35111;DHT22;21290;50.158;8.658;2023-07-20T04:20:38;18.20;99.90
35111;DHT22;21290;50.158;8.658;2023-07-20T04:23:05;18.10;99.90
35111;DHT22;21290;50.158;8.658;2023-07-20T04:25:32;17.90;99.90
35111;DHT22;21290;50.158;8.658;2023-07-20T04:28:07;18.00;99.90
35111;DHT22;21290;50.158;8.658;2023-07-20T04:30:38;17.90;99.90
35111;DHT22;21290;50.158;8.658;2023-07-20T04:33:06;17.80;99.90
35111;DHT22;21290;50.158;8.658;2023-07-20T04:38:14;17.90;99.90
35111;DHT22;21290;50.158;8.658;2023-07-20T04:40:48;17.90;99.90
35111;DHT22;21290;50.158;8.658;2023-07-20T04:43:16;17.90;99.90
35111;DHT22;21290;50.158;8.658;2023-07-20T04:45:43;17.90;99.90
35111;DHT22;21290;50.158;8.658;2023-07-20T04:48:12;17.90;99.90
35111;DHT22;21290;50.158;8.658;2023-07-20T04:50:43;18.00;99.90
35111;DHT22;21290;50.158;8.658;2023-07-20T04:53:12;18.00;99.90
35111;DHT22;21290;50.158;8.658;2023-07-20T04:55:39;18.10;99.90
35111;DHT22;21290;50.158;8.658;2023-07-20T04:58:07;18.10;99.90
35111;DHT22;21290;50.158;8.658;2023-07-20T05:00:34;18.10;99.90
35111;DHT22;21290;50.158;8.658;2023-07-20T05:03:01;18.00;99.90
35111;DHT22;21290;50.158;8.658;2023-07-20T05:05:28;17.90;99.90
35111;DHT22;21290;50.158;8.658;2023-07-20T05:07:55;18.00;99.90
35111;DHT22;21290;50.158;8.658;2023-07-20T05:10:21;17.90;99.90
35111;DHT22;21290;50.158;8.658;2023-07-20T05:12:48;17.90;99.90
35111;DHT22;21290;50.158;8.658;2023-07-20T05:15:15;18.00;99.90
35111;DHT22;21290;50.158;8.658;2023-07-20T05:17:42;18.00;99.90
35111;DHT22;21290;50.158;8.658;2023-07-20T05:20:09;18.00;99.90
35111;DHT22;21290;50.158;8.658;2023-07-20T05:22:42;18.00;99.90
35111;DHT22;21290;50.158;8.658;2023-07-20T05:25:10;18.00;99.90
35111;DHT22;21290;50.158;8.658;2023-07-20T05:27:38;17.90;99.90
35111;DHT22;21290;50.158;8.658;2023-07-20T05:30:06;17.90;99.90
35111;DHT22;21290;50.158;8.658;2023-07-20T05:32:33;17.90;99.90
35111;DHT22;21290;50.158;8.658;2023-07-20T05:35:00;17.90;99.90
35111;DHT22;21290;50.158;8.658;2023-07-20T05:37:27;17.90;99.90
35111;DHT22;21290;50.158;8.658;2023-07-20T05:39:54;17.90;99.90
35111;DHT22;21290;50.158;8.658;2023-07-20T05:42:21;18.00;99.90
35111;DHT22;21290;50.158;8.658;2023-07-20T05:44:47;18.00;99.90
35111;DHT22;21290;50.158;8.658;2023-07-20T05:47:15;18.00;99.90
35111;DHT22;21290;50.158;8.658;2023-07-20T05:49:41;17.90;99.90
35111;DHT22;21290;50.158;8.658;2023-07-20T05:52:08;18.00;99.90
35111;DHT22;21290;50.158;8.658;2023-07-20T05:54:35;18.10;99.90
35111;DHT22;21290;50.158;8.658;2023-07-20T05:57:01;18.20;99.90
35111;DHT22;21290;50.158;8.658;2023-07-20T05:59:28;18.30;99.90
35111;DHT22;21290;50.158;8.658;2023-07-20T06:01:58;18.30;99.90
35111;DHT22;21290;50.158;8.658;2023-07-20T06:04:25;18.60;99.90
35111;DHT22;21290;50.158;8.658;2023-07-20T06:06:51;18.60;99.90
35111;DHT22;21290;50.158;8.658;2023-07-20T06:09:18;18.70;99.90
35111;DHT22;21290;50.158;8.658;2023-07-20T06:11:45;18.70;99.90
35111;DHT22;21290;50.158;8.658;2023-07-20T06:14:12;18.80;99.90
35111;DHT22;21290;50.158;8.658;2023-07-20T06:16:39;19.00;99.90
35111;DHT22;21290;50.158;8.658;2023-07-20T06:19:05;19.20;99.90
35111;DHT22;21290;50.158;8.658;2023-07-20T06:21:32;19.40;99.90
35111;DHT22;21290;50.158;8.658;2023-07-20T06:23:59;19.50;99.90
35111;DHT22;21290;50.158;8.658;2023-07-20T06:26:25;19.70;99.90
35111;DHT22;21290;50.158;8.658;2023-07-20T06:28:52;20.00;99.90
35111;DHT22;21290;50.158;8.658;2023-07-20T06:31:19;20.20;99.90
35111;DHT22;21290;50.158;8.658;2023-07-20T06:33:46;20.10;99.90
35111;DHT22;21290;50.158;8.658;2023-07-20T06:36:13;20.20;99.90
35111;DHT22;21290;50.158;8.658;2023-07-20T06:38:39;20.10;99.90
35111;DHT22;21290;50.158;8.658;2023-07-20T06:41:07;20.20;99.90
35111;DHT22;21290;50.158;8.658;2023-07-20T06:43:36;20.10;99.90
35111;DHT22;21290;50.158;8.658;2023-07-20T06:46:06;20.00;99.90
35111;DHT22;21290;50.158;8.658;2023-07-20T06:48:32;19.80;99.90
35111;DHT22;21290;50.158;8.658;2023-07-20T06:51:20;19.70;99.90
35111;DHT22;21290;50.158;8.658;2023-07-20T06:53:47;19.80;99.90
35111;DHT22;21290;50.158;8.658;2023-07-20T06:56:14;19.90;99.90
35111;DHT22;21290;50.158;8.658;2023-07-20T06:58:40;19.80;99.90
35111;DHT22;21290;50.158;8.658;2023-07-20T07:01:08;19.90;99.90
35111;DHT22;21290;50.158;8.658;2023-07-20T07:03:35;19.90;99.90
35111;DHT22;21290;50.158;8.658;2023-07-20T07:06:01;20.10;99.90
35111;DHT22;21290;50.158;8.658;2023-07-20T07:08:28;20.40;99.90
35111;DHT22;21290;50.158;8.658;2023-07-20T07:10:55;20.60;99.90
35111;DHT22;21290;50.158;8.658;2023-07-20T07:13:22;20.70;99.90
35111;DHT22;21290;50.158;8.658;2023-07-20T07:15:50;20.80;99.90
35111;DHT22;21290;50.158;8.658;2023-07-20T07:18:17;20.90;99.90
35111;DHT22;21290;50.158;8.658;2023-07-20T07:20:51;21.10;99.90
35111;DHT22;21290;50.158;8.658;2023-07-20T07:23:18;21.20;99.90
35111;DHT22;21290;50.158;8.658;2023-07-20T07:25:45;21.40;99.90
35111;DHT22;21290;50.158;8.658;2023-07-20T07:28:12;21.70;99.90
35111;DHT22;21290;50.158;8.658;2023-07-20T07:30:39;21.70;99.90
35111;DHT22;21290;50.158;8.658;2023-07-20T07:33:05;21.80;99.90
35111;DHT22;21290;50.158;8.658;2023-07-20T07:35:32;22.00;99.90
35111;DHT22;21290;50.158;8.658;2023-07-20T07:37:59;22.10;99.90
35111;DHT22;21290;50.158;8.658;2023-07-20T07:40:44;22.40;99.90
35111;DHT22;21290;50.158;8.658;2023-07-20T07:43:11;22.80;99.90
35111;DHT22;21290;50.158;8.658;2023-07-20T07:45:40;23.20;99.90
35111;DHT22;21290;50.158;8.658;2023-07-20T07:48:07;23.70;98.50
35111;DHT22;21290;50.158;8.658;2023-07-20T07:50:34;23.60;98.60
35111;DHT22;21290;50.158;8.658;2023-07-20T07:53:01;23.50;98.30
35111;DHT22;21290;50.158;8.658;2023-07-20T07:55:28;23.40;99.00
35111;DHT22;21290;50.158;8.658;2023-07-20T07:57:54;23.20;98.40
35111;DHT22;21290;50.158;8.658;2023-07-20T08:00:21;22.90;98.80
35111;DHT22;21290;50.158;8.658;2023-07-20T08:02:50;23.00;98.80
35111;DHT22;21290;50.158;8.658;2023-07-20T08:05:17;23.60;98.30
35111;DHT22;21290;50.158;8.658;2023-07-20T08:07:44;24.10;97.10
35111;DHT22;21290;50.158;8.658;2023-07-20T08:10:10;24.40;96.80
35111;DHT22;21290;50.158;8.658;2023-07-20T08:12:37;24.90;95.80
35111;DHT22;21290;50.158;8.658;2023-07-20T08:15:04;25.20;95.30
35111;DHT22;21290;50.158;8.658;2023-07-20T08:17:31;25.40;94.40
35111;DHT22;21290;50.158;8.658;2023-07-20T08:19:58;25.60;93.80
35111;DHT22;21290;50.158;8.658;2023-07-20T08:22:25;25.80;93.40
35111;DHT22;21290;50.158;8.658;2023-07-20T08:24:51;26.10;93.10
35111;DHT22;21290;50.158;8.658;2023-07-20T08:27:18;26.30;92.00
35111;DHT22;21290;50.158;8.658;2023-07-20T08:29:44;26.40;91.60
35111;DHT22;21290;50.158;8.658;2023-07-20T08:32:11;26.40;91.60
35111;DHT22;21290;50.158;8.658;2023-07-20T08:34:42;27.10;91.10
35111;DHT22;21290;50.158;8.658;2023-07-20T08:37:09;28.00;87.90
35111;DHT22;21290;50.158;8.658;2023-07-20T08:39:36;29.00;85.30
35111;DHT22;21290;50.158;8.658;2023-07-20T08:42:04;30.30;80.90
35111;DHT22;21290;50.158;8.658;2023-07-20T08:44:33;30.90;76.50
35111;DHT22;21290;50.158;8.658;2023-07-20T08:47:01;32.00;73.00
35111;DHT22;21290;50.158;8.658;2023-07-20T08:49:31;32.70;70.40
35111;DHT22;21290;50.158;8.658;2023-07-20T08:51:59;32.40;69.30
35111;DHT22;21290;50.158;8.658;2023-07-20T08:54:29;32.80;68.30
35111;DHT22;21290;50.158;8.658;2023-07-20T08:56:58;33.40;66.70
35111;DHT22;21290;50.158;8.658;2023-07-20T08:59:26;33.10;65.80
35111;DHT22;21290;50.158;8.658;2023-07-20T09:01:59;32.60;67.60
35111;DHT22;21290;50.158;8.658;2023-07-20T09:04:26;32.90;65.80
35111;DHT22;21290;50.158;8.658;2023-07-20T09:06:52;32.60;65.10
35111;DHT22;21290;50.158;8.658;2023-07-20T09:09:19;31.80;65.30
35111;DHT22;21290;50.158;8.658;2023-07-20T09:11:49;30.80;67.20
35111;DHT22;21290;50.158;8.658;2023-07-20T09:14:16;29.50;68.00
35111;DHT22;21290;50.158;8.658;2023-07-20T09:16:51;28.70;70.20
35111;DHT22;21290;50.158;8.658;2023-07-20T09:19:18;28.20;71.70
35111;DHT22;21290;50.158;8.658;2023-07-20T09:21:46;27.70;72.70
35111;DHT22;21290;50.158;8.658;2023-07-20T09:24:14;27.40;74.40
35111;DHT22;21290;50.158;8.658;2023-07-20T09:26:44;27.30;75.10
35111;DHT22;21290;50.158;8.658;2023-07-20T09:29:11;27.10;74.60
35111;DHT22;21290;50.158;8.658;2023-07-20T09:31:38;27.00;74.40
35111;DHT22;21290;50.158;8.658;2023-07-20T09:34:08;27.00;74.80
35111;DHT22;21290;50.158;8.658;2023-07-20T09:36:36;27.00;76.20
35111;DHT22;21290;50.158;8.658;2023-07-20T09:39:06;27.10;75.50
35111;DHT22;21290;50.158;8.658;2023-07-20T09:41:42;27.00;75.20
35111;DHT22;21290;50.158;8.658;2023-07-20T09:44:13;26.50;75.60
35111;DHT22;21290;50.158;8.658;2023-07-20T09:46:45;26.60;75.70
35111;DHT22;21290;50.158;8.658;2023-07-20T09:49:17;28.20;74.30
35111;DHT22;21290;50.158;8.658;2023-07-20T09:51:47;28.80;72.10
35111;DHT22;21290;50.158;8.658;2023-07-20T09:54:14;28.40;72.00
35111;DHT22;21290;50.158;8.658;2023-07-20T09:56:42;28.00;72.90
35111;DHT22;21290;50.158;8.658;2023-07-20T09:59:09;29.20;72.40
35111;DHT22;21290;50.158;8.658;2023-07-20T10:01:37;31.50;68.60
35111;DHT22;21290;50.158;8.658;2023-07-20T10:04:08;32.50;65.90
35111;DHT22;21290;50.158;8.658;2023-07-20T10:06:41;33.50;64.60
35111;DHT22;21290;50.158;8.658;2023-07-20T10:09:10;34.30;63.20
35111;DHT22;21290;50.158;8.658;2023-07-20T10:11:40;32.80;62.70
35111;DHT22;21290;50.158;8.658;2023-07-20T10:14:12;30.90;66.40
35111;DHT22;21290;50.158;8.658;2023-07-20T10:16:45;29.60;68.00
35111;DHT22;21290;50.158;8.658;2023-07-20T10:19:34;28.30;70.30
35111;DHT22;21290;50.158;8.658;2023-07-20T10:22:14;27.40;72.10
35111;DHT22;21290;50.158;8.658;2023-07-20T10:24:44;27.00;72.40
35111;DHT22;21290;50.158;8.658;2023-07-20T10:27:12;26.50;73.50
35111;DHT22;21290;50.158;8.658;2023-07-20T10:29:43;25.80;74.30
35111;DHT22;21290;50.158;8.658;2023-07-20T10:32:10;25.40;76.00
35111;DHT22;21290;50.158;8.658;2023-07-20T10:34:37;24.90;77.40
35111;DHT22;21290;50.158;8.658;2023-07-20T10:37:04;25.60;78.20
35111;DHT22;21290;50.158;8.658;2023-07-20T10:39:32;26.60;74.60
35111;DHT22;21290;50.158;8.658;2023-07-20T10:42:09;28.00;73.80
35111;DHT22;21290;50.158;8.658;2023-07-20T10:44:40;29.70;69.50
35111;DHT22;21290;50.158;8.658;2023-07-20T10:47:11;31.10;67.50
35111;DHT22;21290;50.158;8.658;2023-07-20T10:49:58;32.70;66.30
35111;DHT22;21290;50.158;8.658;2023-07-20T10:52:37;33.80;62.90
35111;DHT22;21290;50.158;8.658;2023-07-20T10:55:16;34.30;61.00
35111;DHT22;21290;50.158;8.658;2023-07-20T10:57:44;34.30;60.80
35111;DHT22;21290;50.158;8.658;2023-07-20T11:00:30;34.50;59.70
35111;DHT22;21290;50.158;8.658;2023-07-20T11:02:58;35.00;58.60
35111;DHT22;21290;50.158;8.658;2023-07-20T11:05:36;35.40;58.70
35111;DHT22;21290;50.158;8.658;2023-07-20T11:08:05;34.50;57.70
35111;DHT22;21290;50.158;8.658;2023-07-20T11:10:32;33.70;60.00
35111;DHT22;21290;50.158;8.658;2023-07-20T11:13:21;33.70;60.70
35111;DHT22;21290;50.158;8.658;2023-07-20T11:16:02;34.40;59.60
35111;DHT22;21290;50.158;8.658;2023-07-20T11:18:33;35.00;57.60
35111;DHT22;21290;50.158;8.658;2023-07-20T11:21:00;35.50;56.90
35111;DHT22;21290;50.158;8.658;2023-07-20T11:23:27;36.00;55.80
35111;DHT22;21290;50.158;8.658;2023-07-20T11:25:55;36.10;56.00
35111;DHT22;21290;50.158;8.658;2023-07-20T11:28:22;35.80;55.50
35111;DHT22;21290;50.158;8.658;2023-07-20T11:30:52;35.20;55.90
35111;DHT22;21290;50.158;8.658;2023-07-20T11:33:21;35.30;55.50
35111;DHT22;21290;50.158;8.658;2023-07-20T11:35:49;34.50;56.20
35111;DHT22;21290;50.158;8.658;2023-07-20T11:38:17;34.30;56.30
35111;DHT22;21290;50.158;8.658;2023-07-20T11:40:45;33.30;56.70
35111;DHT22;21290;50.158;8.658;2023-07-20T11:43:12;32.00;57.30
35111;DHT22;21290;50.158;8.658;2023-07-20T11:45:42;31.60;58.10
35111;DHT22;21290;50.158;8.658;2023-07-20T11:48:16;31.10;59.60
35111;DHT22;21290;50.158;8.658;2023-07-20T11:50:43;30.40;60.80
35111;DHT22;21290;50.158;8.658;2023-07-20T11:53:10;29.60;61.50
35111;DHT22;21290;50.158;8.658;2023-07-20T11:55:38;28.80;63.00
35111;DHT22;21290;50.158;8.658;2023-07-20T11:58:07;28.10;64.60
35111;DHT22;21290;50.158;8.658;2023-07-20T12:00:35;27.40;65.60
35111;DHT22;21290;50.158;8.658;2023-07-20T12:03:04;27.50;66.20
35111;DHT22;21290;50.158;8.658;2023-07-20T12:05:34;27.50;65.90
35111;DHT22;21290;50.158;8.658;2023-07-20T12:08:21;27.10;66.30
35111;DHT22;21290;50.158;8.658;2023-07-20T12:10:48;26.60;67.60
35111;DHT22;21290;50.158;8.658;2023-07-20T12:13:16;26.40;67.80
35111;DHT22;21290;50.158;8.658;2023-07-20T12:15:43;26.00;67.90
35111;DHT22;21290;50.158;8.658;2023-07-20T12:18:10;25.70;68.40
35111;DHT22;21290;50.158;8.658;2023-07-20T12:20:37;25.50;69.40
35111;DHT22;21290;50.158;8.658;2023-07-20T12:23:12;25.60;69.70
35111;DHT22;21290;50.158;8.658;2023-07-20T12:25:40;25.90;69.50
35111;DHT22;21290;50.158;8.658;2023-07-20T12:28:10;26.10;68.60
35111;DHT22;21290;50.158;8.658;2023-07-20T12:30:38;26.00;67.70
35111;DHT22;21290;50.158;8.658;2023-07-20T12:33:05;26.20;67.70
35111;DHT22;21290;50.158;8.658;2023-07-20T12:35:33;26.50;66.90
35111;DHT22;21290;50.158;8.658;2023-07-20T12:38:00;27.10;66.70
35111;DHT22;21290;50.158;8.658;2023-07-20T12:40:26;27.60;65.20
35111;DHT22;21290;50.158;8.658;2023-07-20T12:42:53;27.80;64.50
35111;DHT22;21290;50.158;8.658;2023-07-20T12:45:20;28.10;64.90
35111;DHT22;21290;50.158;8.658;2023-07-20T12:47:48;28.10;64.70
35111;DHT22;21290;50.158;8.658;2023-07-20T12:50:15;27.60;64.90
35111;DHT22;21290;50.158;8.658;2023-07-20T12:52:41;27.40;65.50
35111;DHT22;21290;50.158;8.658;2023-07-20T12:55:09;27.40;66.40
35111;DHT22;21290;50.158;8.658;2023-07-20T12:57:36;27.20;65.70
35111;DHT22;21290;50.158;8.658;2023-07-20T13:00:05;27.10;65.90
35111;DHT22;21290;50.158;8.658;2023-07-20T13:02:32;27.00;66.70
35111;DHT22;21290;50.158;8.658;2023-07-20T13:04:59;26.90;67.10
35111;DHT22;21290;50.158;8.658;2023-07-20T13:07:31;26.70;66.70
35111;DHT22;21290;50.158;8.658;2023-07-20T13:10:01;26.40;66.30
35111;DHT22;21290;50.158;8.658;2023-07-20T13:12:30;26.20;66.30
35111;DHT22;21290;50.158;8.658;2023-07-20T13:14:56;26.10;67.50
35111;DHT22;21290;50.158;8.658;2023-07-20T13:17:23;26.10;67.20
35111;DHT22;21290;50.158;8.658;2023-07-20T13:19:50;26.20;66.90
35111;DHT22;21290;50.158;8.658;2023-07-20T13:22:17;26.10;66.80
35111;DHT22;21290;50.158;8.658;2023-07-20T13:24:45;26.00;67.20
35111;DHT22;21290;50.158;8.658;2023-07-20T13:27:18;25.90;67.00
35111;DHT22;21290;50.158;8.658;2023-07-20T13:29:46;25.90;66.60
35111;DHT22;21290;50.158;8.658;2023-07-20T13:32:15;25.80;67.00
35111;DHT22;21290;50.158;8.658;2023-07-20T13:34:42;25.80;67.90
35111;DHT22;21290;50.158;8.658;2023-07-20T13:37:11;25.80;67.50
35111;DHT22;21290;50.158;8.658;2023-07-20T13:39:39;25.80;66.90
35111;DHT22;21290;50.158;8.658;2023-07-20T13:42:06;25.90;65.60
35111;DHT22;21290;50.158;8.658;2023-07-20T13:44:33;26.30;66.40
35111;DHT22;21290;50.158;8.658;2023-07-20T13:47:00;26.70;65.40
35111;DHT22;21290;50.158;8.658;2023-07-20T13:49:30;26.60;63.70
35111;DHT22;21290;50.158;8.658;2023-07-20T13:52:02;26.30;63.80
35111;DHT22;21290;50.158;8.658;2023-07-20T13:54:32;26.20;65.30
35111;DHT22;21290;50.158;8.658;2023-07-20T13:56:58;26.20;64.50
35111;DHT22;21290;50.158;8.658;2023-07-20T13:59:25;26.10;64.80
35111;DHT22;21290;50.158;8.658;2023-07-20T14:01:52;26.30;64.90
35111;DHT22;21290;50.158;8.658;2023-07-20T14:04:39;26.30;63.40
35111;DHT22;21290;50.158;8.658;2023-07-20T14:07:06;26.30;63.30
35111;DHT22;21290;50.158;8.658;2023-07-20T14:09:33;26.40;63.30
35111;DHT22;21290;50.158;8.658;2023-07-20T14:11:59;26.40;64.00
35111;DHT22;21290;50.158;8.658;2023-07-20T14:14:29;26.30;63.40
35111;DHT22;21290;50.158;8.658;2023-07-20T14:16:56;26.20;64.00
35111;DHT22;21290;50.158;8.658;2023-07-20T14:19:22;26.20;63.80
35111;DHT22;21290;50.158;8.658;2023-07-20T14:21:49;26.20;63.50
35111;DHT22;21290;50.158;8.658;2023-07-20T14:24:16;26.10;63.50
35111;DHT22;21290;50.158;8.658;2023-07-20T14:26:45;26.30;63.10
35111;DHT22;21290;50.158;8.658;2023-07-20T14:29:14;26.10;63.10
35111;DHT22;21290;50.158;8.658;2023-07-20T14:31:40;26.00;63.20
35111;DHT22;21290;50.158;8.658;2023-07-20T14:34:08;26.00;63.40
35111;DHT22;21290;50.158;8.658;2023-07-20T14:36:35;26.00;63.20
35111;DHT22;21290;50.158;8.658;2023-07-20T14:39:01;26.20;64.10
35111;DHT22;21290;50.158;8.658;2023-07-20T14:41:28;26.30;64.30
35111;DHT22;21290;50.158;8.658;2023-07-20T14:43:55;26.40;63.40
35111;DHT22;21290;50.158;8.658;2023-07-20T14:46:23;26.40;62.50
35111;DHT22;21290;50.158;8.658;2023-07-20T14:48:50;26.40;62.80
35111;DHT22;21290;50.158;8.658;2023-07-20T14:51:18;26.30;62.40
35111;DHT22;21290;50.158;8.658;2023-07-20T14:53:45;26.40;62.90
35111;DHT22;21290;50.158;8.658;2023-07-20T14:56:11;26.50;62.80
35111;DHT22;21290;50.158;8.658;2023-07-20T14:58:38;26.50;62.60
35111;DHT22;21290;50.158;8.658;2023-07-20T15:01:04;26.50;62.10
35111;DHT22;21290;50.158;8.658;2023-07-20T15:03:31;26.70;62.80
35111;DHT22;21290;50.158;8.658;2023-07-20T15:05:58;26.90;62.40
35111;DHT22;21290;50.158;8.658;2023-07-20T15:08:25;27.00;61.30
35111;DHT22;21290;50.158;8.658;2023-07-20T15:10:52;27.00;60.50
35111;DHT22;21290;50.158;8.658;2023-07-20T15:13:18;27.00;61.10
35111;DHT22;21290;50.158;8.658;2023-07-20T15:15:45;27.00;61.30
35111;DHT22;21290;50.158;8.658;2023-07-20T15:18:12;27.10;60.70
35111;DHT22;21290;50.158;8.658;2023-07-20T15:20:38;27.10;60.40
35111;DHT22;21290;50.158;8.658;2023-07-20T15:23:05;27.00;59.90
35111;DHT22;21290;50.158;8.658;2023-07-20T15:25:32;27.00;60.30
35111;DHT22;21290;50.158;8.658;2023-07-20T15:27:59;27.00;60.60
35111;DHT22;21290;50.158;8.658;2023-07-20T15:30:27;27.00;61.10
35111;DHT22;21290;50.158;8.658;2023-07-20T15:32:56;27.00;60.90
35111;DHT22;21290;50.158;8.658;2023-07-20T15:35:26;26.90;59.60
35111;DHT22;21290;50.158;8.658;2023-07-20T15:37:53;26.80;59.90
35111;DHT22;21290;50.158;8.658;2023-07-20T15:40:19;26.70;60.10
35111;DHT22;21290;50.158;8.658;2023-07-20T15:42:47;26.60;60.20
35111;DHT22;21290;50.158;8.658;2023-07-20T15:45:17;26.60;60.40